sensor_id;sensor_type;location;lat;lon;timestamp;P1;durP1;ratioP1;P2;durP2;ratioP2
63581;SDS011;49727;51.078;17.066;2023-07-02T00:08:53;8.38;;;6.32;;
63581;SDS011;49727;51.078;17.066;2023-07-02T00:23:56;10.20;;;5.72;;
63581;SDS011;49727;51.078;17.066;2023-07-02T00:38:58;13.10;;;4.80;;
63581;SDS011;49727;51.078;17.066;2023-07-02T00:53:58;6.27;;;2.90;;
63581;SDS011;49727;51.078;17.066;2023-07-02T01:09:03;7.53;;;2.15;;
63581;SDS011;49727;51.078;17.066;2023-07-02T01:24:05;3.60;;;2.10;;
63581;SDS011;49727;51.078;17.066;2023-07-02T01:39:06;3.88;;;1.80;;
63581;SDS011;49727;51.078;17.066;2023-07-02T01:54:06;3.92;;;1.50;;
63581;SDS011;49727;51.078;17.066;2023-07-02T02:09:07;3.03;;;1.50;;
63581;SDS011;49727;51.078;17.066;2023-07-02T02:24:09;1.80;;;1.10;;
63581;SDS011;49727;51.078;17.066;2023-07-02T02:54:10;0.85;;;0.60;;
63581;SDS011;49727;51.078;17.066;2023-07-02T03:09:11;1.23;;;0.70;;
63581;SDS011;49727;51.078;17.066;2023-07-02T03:24:11;0.77;;;0.57;;
63581;SDS011;49727;51.078;17.066;2023-07-02T03:39:13;1.27;;;0.90;;
63581;SDS011;49727;51.078;17.066;2023-07-02T03:54:13;1.70;;;1.00;;
63581;SDS011;49727;51.078;17.066;2023-07-02T04:09:13;1.60;;;1.10;;
63581;SDS011;49727;51.078;17.066;2023-07-02T04:24:14;2.72;;;1.20;;
63581;SDS011;49727;51.078;17.066;2023-07-02T04:39:14;2.85;;;1.30;;
63581;SDS011;49727;51.078;17.066;2023-07-02T04:54:14;1.73;;;1.10;;
63581;SDS011;49727;51.078;17.066;2023-07-02T05:09:15;5.13;;;1.55;;
63581;SDS011;49727;51.078;17.066;2023-07-02T05:24:15;3.13;;;1.42;;
63581;SDS011;49727;51.078;17.066;2023-07-02T05:39:15;2.33;;;1.40;;
63581;SDS011;49727;51.078;17.066;2023-07-02T05:54:16;2.83;;;1.50;;
63581;SDS011;49727;51.078;17.066;2023-07-02T06:09:16;2.42;;;1.48;;
63581;SDS011;49727;51.078;17.066;2023-07-02T06:24:16;2.07;;;1.40;;
63581;SDS011;49727;51.078;17.066;2023-07-02T06:39:17;2.77;;;1.70;;
63581;SDS011;49727;51.078;17.066;2023-07-02T06:54:17;4.03;;;1.93;;
63581;SDS011;49727;51.078;17.066;2023-07-02T07:09:18;3.00;;;1.83;;
63581;SDS011;49727;51.078;17.066;2023-07-02T07:24:18;3.13;;;1.88;;
63581;SDS011;49727;51.078;17.066;2023-07-02T07:39:18;2.73;;;1.70;;
63581;SDS011;49727;51.078;17.066;2023-07-02T07:54:18;2.27;;;1.77;;
63581;SDS011;49727;51.078;17.066;2023-07-02T08:09:19;2.78;;;1.83;;
63581;SDS011;49727;51.078;17.066;2023-07-02T08:24:19;3.38;;;1.70;;
63581;SDS011;49727;51.078;17.066;2023-07-02T08:39:19;2.28;;;1.35;;
63581;SDS011;49727;51.078;17.066;2023-07-02T09:09:20;2.10;;;1.53;;
63581;SDS011;49727;51.078;17.066;2023-07-02T09:24:21;2.53;;;1.83;;
63581;SDS011;49727;51.078;17.066;2023-07-02T09:39:26;2.97;;;1.90;;
63581;SDS011;49727;51.078;17.066;2023-07-02T09:54:28;1.90;;;1.57;;
63581;SDS011;49727;51.078;17.066;2023-07-02T10:09:44;2.10;;;1.60;;
63581;SDS011;49727;51.078;17.066;2023-07-02T10:24:53;1.83;;;1.50;;
63581;SDS011;49727;51.078;17.066;2023-07-02T10:39:54;3.23;;;1.87;;
63581;SDS011;49727;51.078;17.066;2023-07-02T10:54:55;1.42;;;1.27;;
63581;SDS011;49727;51.078;17.066;2023-07-02T11:09:55;5.75;;;3.05;;
63581;SDS011;49727;51.078;17.066;2023-07-02T11:24:55;2.40;;;1.05;;
63581;SDS011;49727;51.078;17.066;2023-07-02T11:39:56;2.28;;;1.42;;
63581;SDS011;49727;51.078;17.066;2023-07-02T11:54:56;2.00;;;1.20;;
63581;SDS011;49727;51.078;17.066;2023-07-02T12:09:57;2.28;;;1.10;;
63581;SDS011;49727;51.078;17.066;2023-07-02T12:24:57;2.50;;;1.55;;
63581;SDS011;49727;51.078;17.066;2023-07-02T12:39:57;2.28;;;1.42;;
63581;SDS011;49727;51.078;17.066;2023-07-02T12:54:58;1.65;;;1.23;;
63581;SDS011;49727;51.078;17.066;2023-07-02T13:09:58;4.03;;;1.10;;
63581;SDS011;49727;51.078;17.066;2023-07-02T13:24:59;4.30;;;1.27;;
63581;SDS011;49727;51.078;17.066;2023-07-02T13:39:59;2.72;;;1.20;;
63581;SDS011;49727;51.078;17.066;2023-07-02T13:54:59;1.67;;;1.25;;
63581;SDS011;49727;51.078;17.066;2023-07-02T14:10:00;1.88;;;1.30;;
63581;SDS011;49727;51.078;17.066;2023-07-02T14:25:00;2.83;;;1.35;;
63581;SDS011;49727;51.078;17.066;2023-07-02T14:40:01;2.30;;;1.42;;
63581;SDS011;49727;51.078;17.066;2023-07-02T14:55:01;2.20;;;1.40;;
63581;SDS011;49727;51.078;17.066;2023-07-02T15:10:01;3.63;;;1.63;;
63581;SDS011;49727;51.078;17.066;2023-07-02T15:25:01;2.72;;;1.80;;
63581;SDS011;49727;51.078;17.066;2023-07-02T15:40:03;2.27;;;1.40;;
63581;SDS011;49727;51.078;17.066;2023-07-02T15:55:04;3.45;;;2.05;;
63581;SDS011;49727;51.078;17.066;2023-07-02T16:10:05;2.53;;;1.60;;
63581;SDS011;49727;51.078;17.066;2023-07-02T16:25:07;3.17;;;1.50;;
63581;SDS011;49727;51.078;17.066;2023-07-02T16:40:08;3.30;;;1.77;;
63581;SDS011;49727;51.078;17.066;2023-07-02T16:55:09;3.73;;;1.80;;
63581;SDS011;49727;51.078;17.066;2023-07-02T17:10:10;2.70;;;1.70;;
63581;SDS011;49727;51.078;17.066;2023-07-02T17:25:10;5.20;;;1.90;;
63581;SDS011;49727;51.078;17.066;2023-07-02T17:55:11;4.57;;;2.33;;
63581;SDS011;49727;51.078;17.066;2023-07-02T18:10:11;3.60;;;2.00;;
63581;SDS011;49727;51.078;17.066;2023-07-02T18:25:12;2.90;;;1.67;;
63581;SDS011;49727;51.078;17.066;2023-07-02T18:40:12;5.45;;;2.10;;
63581;SDS011;49727;51.078;17.066;2023-07-02T18:55:14;3.73;;;2.10;;
63581;SDS011;49727;51.078;17.066;2023-07-02T19:10:14;3.70;;;2.23;;
63581;SDS011;49727;51.078;17.066;2023-07-02T19:25:15;7.33;;;3.20;;
63581;SDS011;49727;51.078;17.066;2023-07-02T19:40:16;4.83;;;2.80;;
63581;SDS011;49727;51.078;17.066;2023-07-02T19:55:16;5.30;;;2.83;;
63581;SDS011;49727;51.078;17.066;2023-07-02T20:10:17;6.97;;;3.30;;
63581;SDS011;49727;51.078;17.066;2023-07-02T20:25:17;8.98;;;3.75;;
63581;SDS011;49727;51.078;17.066;2023-07-02T20:40:18;8.70;;;3.85;;
63581;SDS011;49727;51.078;17.066;2023-07-02T20:55:19;5.60;;;2.90;;
63581;SDS011;49727;51.078;17.066;2023-07-02T21:10:20;6.23;;;3.93;;
63581;SDS011;49727;51.078;17.066;2023-07-02T21:25:20;7.07;;;3.83;;
63581;SDS011;49727;51.078;17.066;2023-07-02T21:40:20;7.78;;;4.57;;
63581;SDS011;49727;51.078;17.066;2023-07-02T21:55:21;6.43;;;4.05;;
63581;SDS011;49727;51.078;17.066;2023-07-02T22:10:21;6.65;;;4.00;;
63581;SDS011;49727;51.078;17.066;2023-07-02T22:25:22;8.25;;;4.25;;
63581;SDS011;49727;51.078;17.066;2023-07-02T22:40:23;8.75;;;3.97;;
63581;SDS011;49727;51.078;17.066;2023-07-02T22:55:26;6.27;;;4.20;;
63581;SDS011;49727;51.078;17.066;2023-07-02T23:10:29;7.43;;;4.40;;
63581;SDS011;49727;51.078;17.066;2023-07-02T23:25:30;8.05;;;4.43;;
63581;SDS011;49727;51.078;17.066;2023-07-02T23:40:31;10.33;;;4.13;;
